Time;durP1;ratioP1;P1;durP2;ratioP2;P2;SDS_P1;SDS_P2;PMS_P1;PMS_P2;Temp;Humidity;BMP_temperature;BMP_pressure;BME280_temperature;BME280_humidity;BME280_pressure;Samples;Min_cycle;Max_cycle;Signal;HPM_P1;HPM_P2
2024/04/08 00:01:58;;;;;;;3.63;1.42;;;;;;;12.47;100.00;100698.78;4990225;28;20432;-85
2024/04/08 00:04:25;;;;;;;4.43;1.30;;;;;;;12.37;100.00;100697.00;4982850;28;20458;-85
2024/04/08 00:06:52;;;;;;;7.00;1.50;;;;;;;12.21;100.00;100704.53;4987656;28;20439;-85
2024/04/08 00:09:19;;;;;;;5.63;1.65;;;;;;;12.19;100.00;100698.59;4969000;28;20442;-85
2024/04/08 00:11:47;;;;;;;6.15;1.70;;;;;;;12.12;100.00;100709.00;4989792;28;21057;-85
2024/04/08 00:14:15;;;;;;;3.93;1.77;;;;;;;12.06;100.00;100710.97;4989177;28;20435;-85
2024/04/08 00:16:41;;;;;;;5.30;1.50;;;;;;;12.10;100.00;100707.66;4987585;28;20507;-86
2024/04/08 00:19:08;;;;;;;3.57;1.50;;;;;;;12.21;100.00;100701.03;4988218;28;20430;-85
2024/04/08 00:21:35;;;;;;;5.50;1.50;;;;;;;12.19;100.00;100720.41;4990438;28;20452;-85
2024/04/08 00:24:02;;;;;;;3.20;1.30;;;;;;;12.08;100.00;100686.97;4974982;28;20979;-85
2024/04/08 00:26:29;;;;;;;4.78;1.40;;;;;;;11.98;100.00;100713.53;4974090;28;20438;-85
2024/04/08 00:28:58;;;;;;;7.32;1.90;;;;;;;11.98;100.00;100684.34;4986791;28;20441;-85
2024/04/08 00:31:24;;;;;;;5.90;1.53;;;;;;;12.04;100.00;100696.84;4987256;28;20426;-85
2024/04/08 00:33:52;;;;;;;6.03;1.60;;;;;;;11.91;100.00;100694.75;4987130;28;20491;-85
2024/04/08 00:36:18;;;;;;;4.95;1.50;;;;;;;11.96;100.00;100691.19;4965716;28;20437;-85
2024/04/08 00:38:45;;;;;;;5.03;1.83;;;;;;;11.99;100.00;100688.69;4989840;28;20432;-84
2024/04/08 00:41:12;;;;;;;5.97;1.40;;;;;;;12.05;100.00;100697.63;4975653;28;20794;-85
2024/04/08 00:43:39;;;;;;;5.05;1.30;;;;;;;11.91;100.00;100695.56;4970844;28;20905;-85
2024/04/08 00:46:19;;;;;;;8.50;1.42;;;;;;;12.02;100.00;100687.31;4975300;28;20440;-84
2024/04/08 00:48:47;;;;;;;6.43;1.65;;;;;;;11.91;100.00;100692.03;5007559;28;20420;-84
2024/04/08 00:51:14;;;;;;;7.15;1.73;;;;;;;11.85;100.00;100699.44;4972752;28;20432;-84
2024/04/08 00:53:42;;;;;;;4.25;1.20;;;;;;;11.88;100.00;100685.22;4988521;28;20422;-85
2024/04/08 00:56:11;;;;;;;6.70;1.60;;;;;;;11.85;100.00;100691.25;4975807;28;20428;-85
2024/04/08 00:58:39;;;;;;;5.80;1.57;;;;;;;11.88;100.00;100678.97;4967654;28;20438;-85
2024/04/08 01:01:07;;;;;;;5.03;1.55;;;;;;;11.96;100.00;100681.09;4974737;28;20479;-85
2024/04/08 01:03:34;;;;;;;4.80;1.70;;;;;;;11.87;100.00;100682.78;4972954;28;20444;-85
2024/04/08 01:06:01;;;;;;;5.38;1.40;;;;;;;11.93;100.00;100680.81;4973523;28;20447;-85
2024/04/08 01:08:32;;;;;;;4.53;1.58;;;;;;;11.93;100.00;100700.72;4990334;28;20426;-85
2024/04/08 01:10:58;;;;;;;7.00;1.67;;;;;;;11.80;100.00;100699.50;4973283;28;20436;-85
2024/04/08 01:13:26;;;;;;;6.35;1.50;;;;;;;11.82;100.00;100696.47;4990108;28;20429;-85
2024/04/08 01:15:52;;;;;;;4.03;1.48;;;;;;;11.62;100.00;100698.28;4994267;28;20443;-84
2024/04/08 01:18:21;;;;;;;4.25;1.55;;;;;;;11.62;100.00;100692.03;4994923;28;20425;-85
2024/04/08 01:20:47;;;;;;;5.72;1.40;;;;;;;11.62;100.00;100676.47;4994829;28;20435;-84
2024/04/08 01:23:16;;;;;;;4.55;1.30;;;;;;;11.79;100.00;100675.25;4995637;28;20420;-85
2024/04/08 01:25:44;;;;;;;3.85;1.50;;;;;;;11.88;100.00;100676.25;4994190;28;21015;-85
2024/04/08 01:28:12;;;;;;;5.95;1.40;;;;;;;11.83;100.00;100673.56;4979455;28;20833;-84
2024/04/08 01:30:39;;;;;;;4.72;1.40;;;;;;;11.91;100.00;100665.56;4990219;28;20432;-84
2024/04/08 01:33:06;;;;;;;6.73;1.40;;;;;;;11.95;100.00;100668.56;4969790;28;20922;-85
2024/04/08 01:35:33;;;;;;;7.53;1.50;;;;;;;11.90;100.00;100652.22;4987361;28;20430;-85
2024/04/08 01:38:01;;;;;;;4.95;1.60;;;;;;;11.98;100.00;100648.06;4995341;28;20424;-85
2024/04/08 01:40:27;;;;;;;5.93;1.65;;;;;;;11.95;100.00;100630.38;4978655;28;20429;-85
2024/04/08 01:42:56;;;;;;;5.93;1.45;;;;;;;11.84;100.00;100631.56;4984742;28;20428;-84
2024/04/08 01:45:23;;;;;;;6.20;1.40;;;;;;;11.90;100.00;100624.94;4974931;28;20431;-85
2024/04/08 01:47:50;;;;;;;4.80;1.50;;;;;;;11.99;100.00;100633.34;4974478;28;20433;-84
2024/04/08 01:50:17;;;;;;;4.60;1.50;;;;;;;12.03;100.00;100632.47;4970227;28;20927;-85
2024/04/08 01:52:44;;;;;;;4.45;1.30;;;;;;;11.83;100.00;100628.00;4977533;28;20437;-84
2024/04/08 01:55:11;;;;;;;6.80;1.70;;;;;;;11.92;100.00;100617.28;4977921;28;20801;-85
2024/04/08 01:57:38;;;;;;;3.95;1.35;;;;;;;11.86;100.00;100602.91;4993112;28;20428;-85
2024/04/08 02:01:28;;;;;;;6.70;1.50;;;;;;;11.75;100.00;100590.47;5527634;25;1865629;-85
2024/04/08 02:03:56;;;;;;;5.32;1.50;;;;;;;11.68;100.00;100573.66;5496557;25;20363;-85
2024/04/08 02:06:26;;;;;;;4.88;1.55;;;;;;;11.76;100.00;100572.22;5502289;25;20379;-85
2024/04/08 02:08:53;;;;;;;5.78;1.60;;;;;;;11.65;100.00;100566.06;5494007;25;20351;-84
2024/04/08 02:11:23;;;;;;;6.57;1.60;;;;;;;11.55;100.00;100556.91;5537603;25;21039;-84
2024/04/08 02:13:51;;;;;;;4.47;1.70;;;;;;;11.42;100.00;100543.16;5504203;25;20390;-84
2024/04/08 02:16:21;;;;;;;7.57;1.80;;;;;;;11.51;100.00;100538.69;5537852;25;20379;-84
2024/04/08 02:18:52;;;;;;;3.43;1.40;;;;;;;11.37;100.00;100533.94;5539946;25;20395;-84
2024/04/08 02:21:22;;;;;;;3.83;1.48;;;;;;;11.57;100.00;100526.63;5528641;25;20368;-82
2024/04/08 02:23:50;;;;;;;5.53;1.40;;;;;;;11.69;100.00;100529.75;5529908;25;20369;-84
2024/04/08 02:26:20;;;;;;;6.10;1.50;;;;;;;11.73;100.00;100535.44;5536224;25;20367;-83
2024/04/08 02:28:47;;;;;;;5.70;1.60;;;;;;;11.73;100.00;100530.78;5526942;25;20377;-83
2024/04/08 02:31:17;;;;;;;4.90;1.40;;;;;;;11.79;100.00;100538.91;5505774;25;20374;-83
2024/04/08 02:33:45;;;;;;;6.25;1.50;;;;;;;11.82;100.00;100528.25;5506101;25;20398;-83
2024/04/08 02:36:18;;;;;;;5.07;1.60;;;;;;;11.85;100.00;100529.59;5505335;25;20866;-83
2024/04/08 02:38:45;;;;;;;4.77;1.50;;;;;;;11.78;100.00;100527.22;5521994;25;20894;-83
2024/04/08 02:41:16;;;;;;;6.53;1.73;;;;;;;11.81;100.00;100521.16;5527801;25;20370;-83
2024/04/08 02:43:43;;;;;;;3.15;1.40;;;;;;;11.85;100.00;100529.59;5531616;25;20367;-83
2024/04/08 02:46:13;;;;;;;5.00;1.50;;;;;;;11.86;100.00;100529.28;5500115;25;20870;-83
2024/04/08 02:48:42;;;;;;;7.35;1.67;;;;;;;11.86;100.00;100540.19;5527024;25;21125;-83
2024/04/08 02:51:12;;;;;;;6.13;1.60;;;;;;;11.90;100.00;100532.22;5502164;25;20414;-83
2024/04/08 02:53:42;;;;;;;5.38;1.58;;;;;;;11.84;100.00;100539.66;5528346;25;20350;-83
2024/04/08 02:56:12;;;;;;;3.35;1.48;;;;;;;11.48;100.00;100550.97;5506121;25;20375;-83
2024/04/08 02:58:39;;;;;;;4.90;1.70;;;;;;;11.62;100.00;100566.66;5537559;25;20378;-83
2024/04/08 03:01:12;;;;;;;6.50;1.60;;;;;;;11.60;100.00;100569.66;5516094;25;20386;-83
2024/04/08 03:03:40;;;;;;;6.13;1.90;;;;;;;11.52;100.00;100579.28;5497055;25;20383;-82
2024/04/08 03:06:11;;;;;;;5.25;1.67;;;;;;;11.52;100.00;100601.09;5522614;25;20374;-83
2024/04/08 03:08:43;;;;;;;6.22;2.17;;;;;;;11.49;100.00;100604.38;5497382;25;20382;-82
2024/04/08 03:11:13;;;;;;;7.57;2.30;;;;;;;11.59;100.00;100595.28;5491089;25;20870;-82
2024/04/08 03:13:40;;;;;;;6.97;2.40;;;;;;;11.49;100.00;100609.00;5474852;25;20386;-83
2024/04/08 03:16:10;;;;;;;8.07;2.25;;;;;;;11.56;100.00;100612.22;5516994;25;20379;-83
2024/04/08 03:18:38;;;;;;;5.80;2.30;;;;;;;11.46;100.00;100604.97;5497750;26;20397;-83
2024/04/08 03:21:08;;;;;;;4.75;2.30;;;;;;;11.58;100.00;100613.53;5483246;26;20388;-83
2024/04/08 03:23:35;;;;;;;7.22;2.10;;;;;;;11.52;100.00;100625.59;5519605;25;20381;-82
2024/04/08 03:26:12;;;;;;;6.22;2.40;;;;;;;11.54;100.00;100626.13;5472233;26;20411;-82
2024/04/08 03:28:39;;;;;;;5.25;1.98;;;;;;;11.56;100.00;100607.59;5485256;25;20386;-82
2024/04/08 03:31:10;;;;;;;6.20;2.10;;;;;;;11.65;100.00;100605.03;5483170;26;20400;-82
2024/04/08 03:33:38;;;;;;;6.13;1.90;;;;;;;11.71;100.00;100595.72;5481889;26;20331;-83
2024/04/08 03:36:16;;;;;;;4.95;1.98;;;;;;;11.69;100.00;100597.09;5476633;26;21225;-83
2024/04/08 03:38:46;;;;;;;5.38;1.80;;;;;;;11.53;100.00;100591.81;5516577;25;20358;-83
2024/04/08 03:41:19;;;;;;;6.53;1.85;;;;;;;11.55;100.00;100586.88;5482170;26;20375;-83
2024/04/08 03:43:50;;;;;;;5.28;1.90;;;;;;;11.43;100.00;100597.34;5515001;25;20361;-83
2024/04/08 03:46:20;;;;;;;6.15;1.75;;;;;;;11.50;100.00;100607.91;5519922;25;20382;-83
2024/04/08 03:48:50;;;;;;;5.75;1.80;;;;;;;11.45;100.00;100611.50;5482707;26;20383;-83
2024/04/08 03:51:18;;;;;;;6.30;1.85;;;;;;;11.54;100.00;100607.03;5511786;25;20389;-82
2024/04/08 03:53:48;;;;;;;4.25;1.88;;;;;;;11.50;100.00;100611.47;5519326;25;20387;-83
2024/04/08 03:56:18;;;;;;;7.18;1.83;;;;;;;11.45;100.00;100611.50;5486140;26;20386;-82
2024/04/08 03:58:48;;;;;;;5.00;1.55;;;;;;;11.47;100.00;100622.94;5482335;25;20385;-83
2024/04/08 04:01:17;;;;;;;3.38;1.50;;;;;;;11.48;100.00;100629.22;5487480;26;20395;-82
2024/04/08 04:03:47;;;;;;;5.33;1.87;;;;;;;11.49;100.00;100634.38;5513132;25;20463;-83
2024/04/08 04:06:15;;;;;;;5.70;1.97;;;;;;;11.48;100.00;100651.00;5523793;25;20368;-83
2024/04/08 04:08:45;;;;;;;5.45;2.15;;;;;;;11.34;100.00;100648.94;5515545;25;20367;-83
2024/04/08 04:11:13;;;;;;;8.10;2.13;;;;;;;11.34;100.00;100653.59;5475702;26;20347;-83
2024/04/08 04:13:47;;;;;;;7.53;2.33;;;;;;;11.31;100.00;100648.69;5521903;25;20379;-83
2024/04/08 04:16:15;;;;;;;7.18;2.30;;;;;;;11.37;100.00;100636.66;5517115;25;20890;-83
2024/04/08 04:18:45;;;;;;;9.32;2.33;;;;;;;11.46;100.00;100634.94;5484177;25;20386;-84
2024/04/08 04:21:13;;;;;;;7.30;2.25;;;;;;;11.42;100.00;100623.00;5515075;25;21459;-83
2024/04/08 04:23:43;;;;;;;4.53;1.60;;;;;;;11.45;100.00;100614.25;5508339;25;20560;-83
2024/04/08 04:26:10;;;;;;;5.53;1.73;;;;;;;11.50;100.00;100622.38;5516721;25;20367;-83
2024/04/08 04:28:41;;;;;;;5.57;1.80;;;;;;;11.52;100.00;100616.63;5490097;26;20391;-83
2024/04/08 04:31:11;;;;;;;4.97;1.70;;;;;;;11.54;100.00;100607.03;5478843;26;20401;-84
2024/04/08 04:33:41;;;;;;;5.55;1.90;;;;;;;11.60;100.00;100604.28;5484837;26;20363;-83
2024/04/08 04:36:08;;;;;;;5.13;1.88;;;;;;;11.61;100.00;100603.97;5479873;26;21233;-83
2024/04/08 04:38:38;;;;;;;4.90;1.80;;;;;;;11.53;100.00;100591.81;5480248;26;20377;-82
2024/04/08 04:41:06;;;;;;;5.40;1.80;;;;;;;11.48;100.00;100577.44;5480957;25;20385;-82
2024/04/08 04:43:36;;;;;;;5.68;1.75;;;;;;;11.39;100.00;100575.34;5482330;26;20379;-83
2024/04/08 04:46:06;;;;;;;3.63;1.63;;;;;;;11.51;100.00;100585.03;5519009;25;20371;-83
2024/04/08 04:48:40;;;;;;;3.35;1.60;;;;;;;11.48;100.00;100580.97;5482160;26;20730;-83
2024/04/08 04:51:07;;;;;;;6.53;1.92;;;;;;;11.56;100.00;100584.97;5477873;25;20396;-82
2024/04/08 04:53:37;;;;;;;4.85;1.60;;;;;;;11.58;100.00;100582.75;5510905;25;20374;-82
2024/04/08 04:56:05;;;;;;;4.65;1.60;;;;;;;11.42;100.00;100578.56;5486296;25;20395;-83
2024/04/08 04:58:35;;;;;;;6.80;1.70;;;;;;;11.30;100.00;100565.34;5483955;26;20387;-83
2024/04/08 05:01:03;;;;;;;8.02;1.75;;;;;;;11.43;100.00;100566.56;5511298;25;20383;-83
2024/04/08 05:03:39;;;;;;;4.93;1.85;;;;;;;11.51;100.00;100585.81;5506169;25;20367;-83
2024/04/08 05:06:06;;;;;;;5.85;1.80;;;;;;;11.38;100.00;100572.91;5481482;25;20455;-83
2024/04/08 05:08:36;;;;;;;4.65;1.77;;;;;;;11.48;100.00;100578.22;5505805;25;20732;-84
2024/04/08 05:11:09;;;;;;;5.90;1.92;;;;;;;11.35;100.00;100579.72;5473284;25;20383;-83
2024/04/08 05:13:41;;;;;;;5.00;1.70;;;;;;;11.44;100.00;100576.38;5511420;25;20367;-84
2024/04/08 05:16:10;;;;;;;3.60;2.03;;;;;;;11.51;100.00;100557.78;5480521;26;20897;-84
2024/04/08 05:18:43;;;;;;;4.15;1.92;;;;;;;11.44;100.00;100565.47;5512498;25;20915;-84
2024/04/08 05:21:11;;;;;;;4.28;1.73;;;;;;;11.53;100.00;100578.19;5480877;25;20379;-83
2024/04/08 05:23:44;;;;;;;3.72;1.60;;;;;;;11.58;100.00;100575.38;5512426;25;20383;-84
2024/04/08 05:26:12;;;;;;;5.32;2.00;;;;;;;11.42;100.00;100576.69;5515796;25;20878;-83
2024/04/08 05:28:59;;;;;;;6.32;2.15;;;;;;;11.49;100.00;100571.69;5484492;26;20387;-84
2024/04/08 05:31:38;;;;;;;4.15;1.77;;;;;;;11.54;100.00;100568.88;5474133;26;20421;-84
2024/04/08 05:34:11;;;;;;;5.60;2.20;;;;;;;11.37;100.00;100558.44;5514079;25;21136;-83
2024/04/08 05:36:39;;;;;;;6.45;2.03;;;;;;;11.36;100.00;100547.84;5479974;26;20378;-84
2024/04/08 05:39:09;;;;;;;7.63;2.33;;;;;;;11.51;100.00;100557.78;5477369;26;20509;-84
2024/04/08 05:41:37;;;;;;;6.47;2.20;;;;;;;11.56;100.00;100563.97;5463630;26;21081;-85
2024/04/08 05:44:07;;;;;;;6.33;2.20;;;;;;;11.62;100.00;100562.00;5517390;25;20346;-84
2024/04/08 05:46:34;;;;;;;4.40;2.20;;;;;;;11.50;100.00;100564.31;5474606;26;20403;-84
2024/04/08 05:49:04;;;;;;;5.07;2.43;;;;;;;11.39;100.00;100550.81;5483652;26;20400;-84
2024/04/08 05:51:35;;;;;;;6.03;2.17;;;;;;;11.39;100.00;100550.81;5481538;26;20893;-84
2024/04/08 05:54:05;;;;;;;4.78;2.10;;;;;;;11.32;100.00;100541.34;5501959;25;20378;-84
2024/04/08 05:56:33;;;;;;;5.30;2.20;;;;;;;11.56;100.00;100539.44;5470405;26;20385;-84
2024/04/08 05:59:03;;;;;;;7.15;2.25;;;;;;;11.75;100.00;100530.50;5510453;25;20462;-85
2024/04/08 06:01:32;;;;;;;6.30;2.38;;;;;;;11.94;100.00;100533.28;5503469;25;20478;-84
2024/04/08 06:04:03;;;;;;;5.43;2.10;;;;;;;12.00;100.00;100544.94;5513872;25;20369;-84
2024/04/08 06:06:30;;;;;;;5.95;2.10;;;;;;;12.03;100.00;100545.19;5484360;26;20405;-85
2024/04/08 06:09:08;;;;;;;7.65;2.22;;;;;;;12.11;100.00;100546.47;5469161;25;20400;-85
2024/04/08 06:11:35;;;;;;;6.55;2.38;;;;;;;12.22;100.00;100534.28;5501695;25;20375;-84
2024/04/08 06:14:05;;;;;;;6.03;2.42;;;;;;;12.34;100.00;100533.84;5511220;25;21296;-84
2024/04/08 06:16:33;;;;;;;6.85;2.30;;;;;;;12.44;100.00;100529.34;5472485;26;20484;-84
2024/04/08 06:19:10;;;;;;;4.82;2.28;;;;;;;12.37;100.00;100516.91;5477881;26;20375;-84
2024/04/08 06:21:38;;;;;;;5.80;2.07;;;;;;;12.53;100.00;100533.03;5476509;26;20517;-85
2024/04/08 06:24:11;;;;;;;6.57;1.90;;;;;;;12.58;100.00;100531.03;5507811;25;20465;-84
2024/04/08 06:26:38;;;;;;;6.60;2.13;;;;;;;12.79;100.00;100538.91;5507989;25;20319;-82
2024/04/08 06:29:08;;;;;;;6.35;1.80;;;;;;;12.88;100.00;100541.75;5512879;25;20382;-83
2024/04/08 06:31:36;;;;;;;6.78;2.08;;;;;;;12.85;100.00;100545.88;5467621;26;20323;-83
2024/04/08 06:34:06;;;;;;;7.18;2.15;;;;;;;12.89;100.00;100529.72;5468423;25;21012;-84
2024/04/08 06:36:35;;;;;;;4.55;1.80;;;;;;;12.89;100.00;100522.34;5505507;25;20465;-83
2024/04/08 06:39:06;;;;;;;6.53;1.92;;;;;;;12.85;100.00;100521.31;5505867;25;20327;-82
2024/04/08 06:41:37;;;;;;;4.30;2.20;;;;;;;12.91;100.00;100519.28;5471136;26;20319;-82
2024/04/08 06:44:07;;;;;;;9.18;2.30;;;;;;;13.12;100.00;100522.50;5505309;25;21569;-83
2024/04/08 06:46:34;;;;;;;6.95;2.20;;;;;;;13.32;100.00;100512.31;5506208;25;20378;-84
2024/04/08 06:49:04;;;;;;;7.03;1.90;;;;;;;13.37;100.00;100512.25;5481848;25;20580;-83
2024/04/08 06:51:32;;;;;;;4.47;1.67;;;;;;;13.49;100.00;100526.22;5478300;26;20379;-83
2024/04/08 06:54:02;;;;;;;6.15;1.55;;;;;;;13.37;100.00;100520.44;5518318;25;20354;-83
2024/04/08 06:56:29;;;;;;;4.45;1.70;;;;;;;13.35;100.00;100517.16;5509967;25;20379;-83
2024/04/08 06:59:02;;;;;;;3.13;1.33;;;;;;;13.27;100.00;100522.22;5334439;26;21899;-84
2024/04/08 07:01:30;;;;;;;4.57;1.40;;;;;;;13.30;100.00;100536.38;5363678;26;20840;-84
2024/04/08 07:04:00;;;;;;;4.78;1.60;;;;;;;13.40;100.00;100531.56;5352992;26;20326;-84
2024/04/08 07:06:27;;;;;;;4.60;1.63;;;;;;;13.54;100.00;100519.84;5320758;26;20386;-83
2024/04/08 07:08:57;;;;;;;3.90;1.48;;;;;;;13.50;100.00;100524.28;5324207;26;20389;-83
2024/04/08 07:11:26;;;;;;;7.60;1.88;;;;;;;13.49;100.00;100518.03;5352991;26;20343;-82
2024/04/08 07:13:56;;;;;;;4.40;1.47;;;;;;;13.57;100.00;100513.75;5349471;26;20342;-83
2024/04/08 07:16:27;;;;;;;3.33;1.33;;;;;;;13.52;100.00;100514.69;5309262;26;20381;-83
2024/04/08 07:18:57;;;;;;;6.13;1.58;;;;;;;13.42;100.00;100514.84;5334931;26;20325;-83
2024/04/08 07:21:24;;;;;;;8.30;1.65;;;;;;;13.36;100.00;100518.81;5315777;26;20374;-83
2024/04/08 07:23:55;;;;;;;4.85;1.70;;;;;;;13.26;100.00;100508.84;5315966;26;20334;-83
2024/04/08 07:26:22;;;;;;;6.20;1.67;;;;;;;13.29;100.00;100512.91;5356145;26;20323;-83
2024/04/08 07:28:52;;;;;;;6.03;1.70;;;;;;;13.39;100.00;100504.53;5345187;26;20332;-82
2024/04/08 07:31:19;;;;;;;4.32;1.40;;;;;;;13.38;100.00;100505.63;5348518;26;21256;-82
2024/04/08 07:33:52;;;;;;;3.30;1.63;;;;;;;13.28;100.00;100512.09;5312759;26;20885;-81
2024/04/08 07:36:20;;;;;;;5.03;1.70;;;;;;;13.24;100.00;100497.41;5362912;26;20322;-82
2024/04/08 07:38:50;;;;;;;3.73;1.50;;;;;;;13.27;100.00;100485.84;5353030;26;20326;-83
2024/04/08 07:41:18;;;;;;;7.07;1.88;;;;;;;13.35;100.00;100478.88;5321042;26;20353;-88
2024/04/08 07:43:48;;;;;;;5.32;1.77;;;;;;;13.29;100.00;100472.72;5323711;26;20371;-83
2024/04/08 07:46:15;;;;;;;4.35;1.60;;;;;;;13.28;100.00;100473.81;5353166;26;20324;-84
2024/04/08 07:48:48;;;;;;;4.40;1.50;;;;;;;13.24;100.00;100470.91;5357389;26;20334;-85
2024/04/08 07:51:18;;;;;;;5.97;1.70;;;;;;;13.25;100.00;100474.44;5363528;26;20338;-85
2024/04/08 07:53:48;;;;;;;3.40;1.20;;;;;;;13.17;100.00;100473.22;5340242;26;21249;-85
2024/04/08 07:56:16;;;;;;;2.85;1.40;;;;;;;13.24;100.00;100479.09;5357138;26;20352;-85
2024/04/08 07:58:48;;;;;;;5.68;1.70;;;;;;;13.26;100.00;100479.59;5300903;26;20381;-87
2024/04/08 08:01:15;;;;;;;6.20;1.50;;;;;;;13.34;100.00;100482.72;5321973;26;20493;-86
2024/04/08 08:03:46;;;;;;;5.32;1.50;;;;;;;13.34;100.00;100486.28;5362489;26;20672;-85
2024/04/08 08:06:14;;;;;;;6.60;1.80;;;;;;;13.45;100.00;100489.66;5359451;26;20339;-86
2024/04/08 08:08:46;;;;;;;5.32;1.40;;;;;;;13.47;100.00;100486.63;5360749;26;20369;-85
2024/04/08 08:11:17;;;;;;;5.70;1.50;;;;;;;13.52;100.00;100492.81;5370228;26;20847;-85
2024/04/08 08:13:47;;;;;;;7.07;1.58;;;;;;;13.56;100.00;100485.59;5321782;26;20344;-86
2024/04/08 08:16:17;;;;;;;4.80;1.50;;;;;;;13.73;100.00;100482.25;5346402;26;20367;-86
2024/04/08 08:18:48;;;;;;;6.10;1.70;;;;;;;13.79;100.00;100474.75;5368779;26;20361;-86
2024/04/08 08:21:18;;;;;;;5.20;1.60;;;;;;;13.87;100.00;100457.59;5360237;26;20338;-85
2024/04/08 08:23:51;;;;;;;3.63;1.50;;;;;;;13.85;100.00;100446.19;5331743;26;20350;-86
2024/04/08 08:26:21;;;;;;;3.70;1.52;;;;;;;13.87;100.00;100438.44;5323898;26;20853;-86
2024/04/08 08:28:51;;;;;;;5.75;1.40;;;;;;;13.90;100.00;100442.50;5336338;26;20368;-85
2024/04/08 08:31:21;;;;;;;5.53;1.70;;;;;;;14.01;100.00;100426.66;5338951;26;20346;-86
2024/04/08 08:33:51;;;;;;;5.10;1.60;;;;;;;14.03;100.00;100427.16;5344999;26;20390;-85
2024/04/08 08:36:21;;;;;;;4.35;1.52;;;;;;;13.99;100.00;100434.38;5321221;26;20378;-86
2024/04/08 08:38:51;;;;;;;6.97;1.40;;;;;;;14.15;100.00;100443.84;5327060;26;20338;-86
2024/04/08 08:41:24;;;;;;;5.82;1.60;;;;;;;14.15;100.00;100438.38;5325679;26;20719;-85
2024/04/08 08:43:57;;;;;;;5.22;1.85;;;;;;;14.31;100.00;100429.78;5326252;26;20375;-86
2024/04/08 08:46:27;;;;;;;6.72;1.73;;;;;;;14.33;100.00;100413.88;5354771;26;20327;-86
2024/04/08 08:48:59;;;;;;;5.97;1.73;;;;;;;14.38;100.00;100419.22;5324895;26;20345;-85
2024/04/08 08:51:30;;;;;;;4.45;1.63;;;;;;;14.48;100.00;100416.22;5356587;26;20339;-85
2024/04/08 08:54:00;;;;;;;5.57;1.60;;;;;;;14.55;100.00;100413.03;5362226;26;20326;-86
2024/04/08 08:56:33;;;;;;;4.97;1.80;;;;;;;14.51;100.00;100409.31;5355943;26;20377;-86
2024/04/08 08:59:04;;;;;;;6.38;1.70;;;;;;;14.48;100.00;100409.94;5335072;26;20385;-85
2024/04/08 09:01:34;;;;;;;4.82;1.75;;;;;;;14.56;100.00;100414.66;5346194;26;20347;-85
2024/04/08 09:04:04;;;;;;;5.17;1.80;;;;;;;14.64;100.00;100435.84;5333619;26;20346;-85
2024/04/08 09:06:34;;;;;;;6.23;2.00;;;;;;;14.56;100.00;100450.25;5351085;26;20326;-86
2024/04/08 09:09:05;;;;;;;8.32;1.92;;;;;;;14.60;100.00;100460.28;5319651;26;20342;-85
2024/04/08 09:11:35;;;;;;;7.05;1.88;;;;;;;14.69;100.00;100456.81;5356671;26;20338;-85
2024/04/08 09:14:05;;;;;;;8.57;2.10;;;;;;;14.71;100.00;100460.84;5350350;26;20334;-85
2024/04/08 09:16:35;;;;;;;5.43;2.00;;;;;;;14.72;100.00;100458.91;5330028;26;20332;-87
2024/04/08 09:19:03;;;;;;;5.90;1.80;;;;;;;14.86;100.00;100462.41;5350586;26;20561;-86
2024/04/08 09:21:33;;;;;;;7.50;1.77;;;;;;;15.04;100.00;100459.72;5324346;26;20340;-86
2024/04/08 09:24:06;;;;;;;4.25;1.50;;;;;;;15.18;100.00;100456.88;5328989;26;20386;-86
2024/04/08 09:26:39;;;;;;;6.75;1.95;;;;;;;15.33;100.00;100461.13;5363854;26;20839;-86
2024/04/08 09:29:06;;;;;;;5.70;1.90;;;;;;;15.45;100.00;100459.41;5323368;26;20410;-86
2024/04/08 09:31:36;;;;;;;8.65;1.80;;;;;;;15.61;100.00;100465.25;5337818;26;22136;-86
2024/04/08 09:34:04;;;;;;;4.82;1.50;;;;;;;15.71;100.00;100466.88;5322050;26;20379;-86
2024/04/08 09:36:35;;;;;;;4.57;1.40;;;;;;;15.88;100.00;100459.84;5362825;26;20499;-85
2024/04/08 09:39:11;;;;;;;5.78;1.60;;;;;;;15.93;100.00;100456.94;5341828;26;20350;-87
2024/04/08 09:41:39;;;;;;;5.47;1.80;;;;;;;16.06;100.00;100453.25;5366444;26;20901;-87
2024/04/08 09:44:11;;;;;;;6.55;1.55;;;;;;;16.26;100.00;100457.28;5339500;26;20351;-87
2024/04/08 09:46:40;;;;;;;6.85;1.80;;;;;;;16.55;100.00;100450.31;5328273;26;20339;-87
2024/04/08 09:49:13;;;;;;;4.13;1.65;;;;;;;16.78;100.00;100450.09;5341669;26;20375;-86
2024/04/08 09:51:41;;;;;;;3.83;1.77;;;;;;;17.10;100.00;100445.19;5329697;26;20372;-87
2024/04/08 09:54:14;;;;;;;5.68;1.90;;;;;;;17.27;100.00;100445.06;5354517;26;20361;-87
2024/04/08 09:56:44;;;;;;;7.55;2.15;;;;;;;17.05;100.00;100448.88;5357853;26;20376;-87
2024/04/08 09:59:20;;;;;;;4.45;1.70;;;;;;;16.89;100.00;100447.81;5330536;26;20347;-87
2024/04/08 10:01:49;;;;;;;6.90;1.60;;;;;;;16.94;100.00;100450.41;5328453;26;20340;-87
2024/04/08 10:04:23;;;;;;;7.07;1.88;;;;;;;17.10;100.00;100450.69;5330239;26;20370;-86
2024/04/08 10:06:55;;;;;;;6.18;1.67;;;;;;;17.16;100.00;100458.38;5357550;26;20345;-87
2024/04/08 10:09:28;;;;;;;6.57;1.70;;;;;;;17.13;100.00;100450.81;5362541;26;20345;-86
2024/04/08 10:11:55;;;;;;;7.40;1.80;;;;;;;17.32;100.00;100447.66;5350767;26;20380;-86
2024/04/08 10:14:27;;;;;;;5.07;1.58;;;;;;;17.17;100.00;100440.75;5362358;26;20350;-87
2024/04/08 10:16:58;;;;;;;4.80;1.50;;;;;;;17.24;100.00;100428.44;5329320;26;20335;-85
2024/04/08 10:19:28;;;;;;;4.67;1.70;;;;;;;16.91;100.00;100423.56;5346452;26;20333;-86
2024/04/08 10:21:59;;;;;;;4.88;1.70;;;;;;;16.73;100.00;100442.03;5364921;26;20335;-86
2024/04/08 10:24:33;;;;;;;6.72;1.90;;;;;;;16.80;100.00;100432.13;5326331;26;20375;-86
2024/04/08 10:27:02;;;;;;;6.55;1.70;;;;;;;16.83;100.00;100436.16;5332621;26;20335;-86
2024/04/08 10:29:35;;;;;;;5.93;1.60;;;;;;;16.83;100.00;100445.25;5328322;26;20337;-86
2024/04/08 10:32:03;;;;;;;6.10;1.60;;;;;;;16.84;100.00;100444.06;5347733;26;20383;-86
2024/04/08 10:34:36;;;;;;;5.13;1.60;;;;;;;16.85;100.00;100431.16;5346503;26;21030;-86
2024/04/08 10:37:04;;;;;;;5.10;1.88;;;;;;;16.95;100.00;100425.31;5325906;26;20383;-86
2024/04/08 10:39:36;;;;;;;4.67;1.60;;;;;;;17.13;100.00;100414.25;5358388;26;20324;-87
2024/04/08 10:42:13;;;;;;;4.43;1.77;;;;;;;17.15;100.00;100418.31;5358270;26;20339;-86
2024/04/08 10:44:43;;;;;;;5.78;1.80;;;;;;;16.93;100.00;100416.63;5326350;26;22189;-85
2024/04/08 10:47:10;;;;;;;6.20;1.65;;;;;;;16.91;100.00;100416.13;5324913;26;21024;-87
2024/04/08 10:49:43;;;;;;;5.32;1.70;;;;;;;16.84;100.00;100402.06;5365187;26;20890;-86
2024/04/08 10:52:10;;;;;;;5.82;1.67;;;;;;;16.56;100.00;100396.16;5326578;26;20365;-86
2024/04/08 10:54:43;;;;;;;6.80;1.77;;;;;;;16.87;100.00;100393.16;5364433;26;20371;-86
2024/04/08 10:57:11;;;;;;;4.90;1.70;;;;;;;16.94;100.00;100396.22;5350361;26;20367;-86
2024/04/08 10:59:42;;;;;;;6.18;1.70;;;;;;;16.85;100.00;100395.44;5298024;26;20354;-86
2024/04/08 11:02:14;;;;;;;4.82;1.77;;;;;;;16.88;100.00;100392.03;5359605;26;20348;-87
2024/04/08 11:04:44;;;;;;;4.90;1.90;;;;;;;16.93;100.00;100393.81;5348448;26;20340;-87
2024/04/08 11:07:12;;;;;;;7.00;1.90;;;;;;;17.14;100.00;100388.38;5335415;26;20346;-86
2024/04/08 11:09:45;;;;;;;7.20;1.92;;;;;;;17.16;100.00;100384.13;5362480;26;20344;-86
2024/04/08 11:12:12;;;;;;;6.60;1.83;;;;;;;17.20;100.00;100378.78;5337016;26;20338;-86
2024/04/08 11:14:43;;;;;;;6.38;1.63;;;;;;;17.37;100.00;100377.88;5330804;26;20366;-87
2024/04/08 11:17:14;;;;;;;4.55;1.52;;;;;;;17.35;100.00;100374.66;5324062;26;21084;-88
2024/04/08 11:19:45;;;;;;;5.15;1.70;;;;;;;17.27;100.00;100392.03;5332021;26;20371;-87
2024/04/08 11:22:13;;;;;;;7.15;1.70;;;;;;;17.19;100.00;100390.13;5332624;26;20382;-87
2024/04/08 11:24:46;;;;;;;5.83;1.43;;;;;;;17.16;100.00;100386.88;5334310;26;20338;-87
2024/04/08 11:27:15;;;;;;;7.28;1.70;;;;;;;17.02;100.00;100391.81;5336945;26;20343;-87
2024/04/08 11:29:46;;;;;;;8.55;1.60;;;;;;;17.04;100.00;100375.81;5341653;26;20367;-87